Home   Weather   USA   Prattsville   Past weeks
Flag for USA

Past Weather in Prattsville, New York, USA — Yesterday and Last 2 Weeks

Currently: 80 °F. Mild. (Weather station: Halcott Center - MADIS Station, USA). See more current weather

Past Weather in Prattsville — Graph

°F

Prattsville Temperature Yesterday

Maximum temperature yesterday: 82 °F (at 1:10 pm)
Minimum temperature yesterday: 65 °F (at 5:15 am)
Average temperature yesterday: 73 °F

High & Low Weather Summary for the Past Weeks

 TemperatureHumidityPressure
High87 °F (Jun 19, 2:30 pm)95% (Jun 22, 6:20 am)28.00 "Hg (Jun 22, 6:20 am)
Low46 °F (Jun 16, 5:30 am)43% (Jun 16, 3:20 pm)27.26 "Hg (Jun 9, 9:40 am)
Average64 °F77%27.67 "Hg
* Reported Jun 7 3:20 pm — Jun 22 3:10 pm, Prattsville. Weather by CustomWeather, © 2024

Note: Actual official high and low records may vary slightly from our data, if they occured in-between our weather recording intervals... More about our weather records

Prattsville Weather History for the Previous 24 Hours

Scroll right to see more
 ConditionsComfort  
Time TempWeatherWind HumidityBarometerVisibility
3:10 pm
Sat, Jun 22
81 °FWarm.3 mph68%27.67 "HgN/A
2:40 pm78 °FMild.No wind74%27.67 "HgN/A
2:30 pm77 °FMild.1 mph75%27.68 "HgN/A
2:20 pm78 °FMild.1 mph75%27.69 "HgN/A
12:20 pm76 °FMild.2 mph83%27.72 "HgN/A
12:10 pm77 °FMild.3 mph76%27.71 "HgN/A
11:30 am79 °FMild.4 mph72%27.72 "HgN/A
11:20 am78 °FMild.2 mph75%27.72 "HgN/A
11:10 am77 °FMild.3 mph75%27.72 "HgN/A
10:30 am77 °FMild.4 mph74%27.73 "HgN/A
10:20 am77 °FMild.2 mph76%27.73 "HgN/A
10:10 am76 °FMild.3 mph77%27.72 "HgN/A
9:40 am75 °FMild.3 mph78%27.72 "HgN/A
9:10 am74 °FMild.2 mph82%27.73 "HgN/A
7:25 am69 °FCool.1 mph90%27.76 "HgN/A
7:10 am67 °FCool.No wind94%27.76 "HgN/A
6:30 am65 °FCool.1 mph94%27.75 "HgN/A
6:20 am65 °FCool.1 mph95%27.75 "HgN/A
4:00 am64 °FCool.No wind94%27.76 "HgN/A
3:30 am64 °FCool.No wind94%27.76 "HgN/A
3:10 am65 °FCool.No wind94%27.77 "HgN/A
2:40 am65 °FCool.No wind94%27.77 "HgN/A
2:30 am65 °FCool.No wind94%27.77 "HgN/A
2:20 am65 °FCool.No wind94%27.78 "HgN/A
1:55 am65 °FCool.No wind94%27.79 "HgN/A
1:30 am66 °FCool.1 mph94%27.79 "HgN/A
1:20 am66 °FCool.No wind94%27.79 "HgN/A
12:30 am66 °FCool.1 mph94%27.80 "HgN/A
12:20 am66 °FCool.1 mph94%27.80 "HgN/A
10:45 pm
Fri, Jun 21
67 °FCool.2 mph92%27.81 "HgN/A
9:50 pm68 °FCool.No wind92%27.81 "HgN/A
9:30 pm69 °FCool.No wind92%27.81 "HgN/A
9:20 pm69 °FCool.No wind92%27.81 "HgN/A
8:20 pm70 °FCool.No wind91%27.79 "HgN/A
7:50 pm71 °FCool.No wind87%27.80 "HgN/A
7:20 pm72 °FMild.No wind88%27.80 "HgN/A
6:40 pm72 °FMild.No wind88%27.80 "HgN/A
6:20 pm73 °FMild.No wind86%27.80 "HgN/A
4:20 pm74 °FMild.No wind79%27.81 "HgN/A
Weather by CustomWeather, © 2024

See weather overview